Manhattan, Pennsylvania
Current Conditions -  °F | °C
As of 7:55 PM on Monday 22 Dec 2014 (Local Time) from KN38 Reporting Station
Overcast Overcast  
Wind Chill: 25°   Ceiling: 2100
Heat Index: 30°   Visibility: 10mi
Dew Point: 25°   Wind: 5mph
Humidity: 80%   Direction: NA
Pressure: 30.11"   Gusts: NA
Location:  41.6649°N, 77.5403°W
Report Text: KN38 230055Z AUTO VRB04KT 10SM OVC021 M01/M04 A3011 RMK AO2
Loading
Personal Weather Stations






























Interactive Weather Map New forecast layout! Learn more

10-Day Weather Forecast

Advertisements
Track Severe Weather on mobile